createdAt,value
2023-05-22T00:02:26.330Z,12.97
2023-05-22T00:04:58.770Z,13.30
2023-05-22T00:07:27.448Z,12.67
2023-05-22T00:09:55.457Z,12.77
2023-05-22T00:12:23.386Z,13.33
2023-05-22T00:14:52.967Z,12.90
2023-05-22T00:17:21.115Z,12.90
2023-05-22T00:19:49.140Z,13.03
2023-05-22T00:22:18.475Z,13.20
2023-05-22T00:24:46.432Z,12.50
2023-05-22T00:27:14.379Z,12.87
2023-05-22T00:29:42.344Z,13.40
2023-05-22T00:32:10.325Z,13.07
2023-05-22T00:34:38.531Z,12.33
2023-05-22T00:37:06.649Z,11.63
2023-05-22T00:39:35.974Z,12.10
2023-05-22T00:42:04.036Z,11.83
2023-05-22T00:44:32.094Z,11.30
2023-05-22T00:47:00.148Z,11.57
2023-05-22T00:49:28.181Z,10.53
2023-05-22T00:51:56.404Z,11.03
2023-05-22T00:54:24.913Z,10.93
2023-05-22T00:56:54.335Z,11.80
2023-05-22T00:59:22.337Z,11.03
2023-05-22T01:01:51.230Z,11.30
2023-05-22T01:04:19.703Z,10.63
2023-05-22T01:06:47.993Z,11.87
2023-05-22T01:09:16.248Z,11.23
2023-05-22T01:11:52.354Z,11.30
2023-05-22T01:14:30.787Z,10.90
2023-05-22T01:17:08.807Z,10.40
2023-05-22T01:20:01.136Z,11.53
2023-05-22T01:22:58.186Z,11.17
2023-05-22T01:25:50.544Z,11.00
2023-05-22T01:28:36.851Z,12.00
2023-05-22T01:31:11.030Z,11.70
2023-05-22T01:33:46.525Z,10.87
2023-05-22T01:36:16.615Z,10.63
2023-05-22T01:38:44.903Z,11.53
2023-05-22T01:41:13.228Z,11.10
2023-05-22T01:43:41.335Z,10.90
2023-05-22T01:46:10.746Z,10.60
2023-05-22T01:48:38.735Z,10.40
2023-05-22T01:51:12.946Z,11.17
2023-05-22T01:53:47.058Z,11.70
2023-05-22T01:56:17.663Z,11.17
2023-05-22T01:58:50.643Z,11.07
2023-05-22T02:01:22.131Z,11.23
2023-05-22T02:03:56.513Z,11.20
2023-05-22T02:06:26.519Z,11.17
2023-05-22T02:08:55.495Z,11.27
2023-05-22T02:11:26.776Z,11.20
2023-05-22T02:13:55.139Z,11.30
2023-05-22T02:16:24.695Z,10.43
2023-05-22T02:18:54.162Z,10.80
2023-05-22T02:21:23.484Z,10.57
2023-05-22T02:23:51.455Z,10.70
2023-05-22T02:26:19.442Z,10.27
2023-05-22T02:28:47.384Z,9.97
2023-05-22T02:31:16.217Z,9.80
2023-05-22T02:33:45.581Z,10.23
2023-05-22T02:36:14.423Z,10.73
2023-05-22T02:38:42.400Z,10.07
2023-05-22T02:41:10.352Z,9.80
2023-05-22T02:43:38.357Z,10.50
2023-05-22T02:46:06.340Z,11.10
2023-05-22T02:48:34.350Z,9.80
2023-05-22T02:51:03.640Z,10.20
2023-05-22T02:53:33.564Z,9.83
2023-05-22T02:56:01.523Z,10.27
2023-05-22T02:58:29.461Z,9.87
2023-05-22T03:00:57.355Z,9.80
2023-05-22T03:03:25.617Z,9.93
2023-05-22T03:05:58.178Z,9.43
2023-05-22T03:08:28.496Z,9.30
2023-05-22T03:10:56.940Z,9.53
2023-05-22T03:13:24.960Z,10.37
2023-05-22T03:15:53.165Z,9.73
2023-05-22T03:18:21.672Z,10.33
2023-05-22T03:20:49.802Z,9.43
2023-05-22T03:23:17.972Z,9.73
2023-05-22T03:25:47.515Z,9.70
2023-05-22T03:28:15.920Z,9.57
2023-05-22T03:30:46.533Z,9.73
2023-05-22T03:33:14.535Z,10.10
2023-05-22T03:35:44.484Z,9.80
2023-05-22T03:38:12.468Z,8.80
2023-05-22T03:40:40.788Z,10.20
2023-05-22T03:43:10.363Z,8.80
2023-05-22T03:45:38.334Z,9.50
2023-05-22T03:48:06.578Z,9.13
2023-05-22T03:50:34.554Z,9.43
2023-05-22T03:53:02.492Z,9.87
2023-05-22T03:55:30.804Z,9.20
2023-05-22T03:57:58.805Z,9.53
2023-05-22T04:00:28.109Z,8.90
2023-05-22T04:02:58.662Z,9.03
2023-05-22T04:05:26.993Z,9.00
2023-05-22T04:07:55.078Z,8.80
2023-05-22T04:10:23.643Z,8.37
2023-05-22T04:12:51.715Z,9.27
2023-05-22T04:15:19.687Z,8.60
2023-05-22T04:17:49.909Z,8.43
2023-05-22T04:20:19.649Z,8.50
2023-05-22T04:22:48.860Z,8.40
2023-05-22T04:25:16.880Z,8.60
2023-05-22T04:27:44.846Z,9.27
2023-05-22T04:30:14.303Z,8.30
2023-05-22T04:32:43.483Z,8.90
2023-05-22T04:35:12.841Z,8.33
2023-05-22T04:37:42.305Z,7.93
2023-05-22T04:40:11.362Z,7.87
2023-05-22T04:42:40.466Z,8.70
2023-05-22T04:45:09.882Z,7.50
2023-05-22T04:47:41.529Z,8.37
2023-05-22T04:50:10.212Z,8.40
2023-05-22T04:52:39.503Z,8.40
2023-05-22T04:55:08.533Z,8.20
2023-05-22T04:57:36.498Z,8.07
2023-05-22T05:00:09.217Z,7.97
2023-05-22T05:02:37.389Z,7.50
2023-05-22T05:05:05.814Z,8.10
2023-05-22T05:07:33.761Z,7.67
2023-05-22T05:10:03.060Z,7.67
2023-05-22T05:12:31.000Z,8.17
2023-05-22T05:14:58.952Z,7.03
2023-05-22T05:17:27.032Z,7.90
2023-05-22T05:19:55.161Z,7.40
2023-05-22T05:22:23.189Z,7.20
2023-05-22T05:24:51.178Z,7.30
2023-05-22T05:27:20.512Z,7.57
2023-05-22T05:29:48.511Z,7.63
2023-05-22T05:32:17.095Z,7.50
2023-05-22T05:34:45.472Z,7.77
2023-05-22T05:37:14.163Z,7.17
2023-05-22T05:39:42.168Z,7.20
2023-05-22T05:42:10.244Z,7.17
2023-05-22T05:44:39.669Z,6.73
2023-05-22T05:47:07.996Z,6.70
2023-05-22T05:49:36.067Z,7.47
2023-05-22T05:52:07.944Z,7.00
2023-05-22T05:54:35.961Z,6.87
2023-05-22T05:57:03.902Z,6.70
2023-05-22T05:59:32.439Z,7.10
2023-05-22T06:02:01.782Z,6.97
2023-05-22T06:04:29.760Z,6.47
2023-05-22T06:06:57.756Z,7.40
2023-05-22T06:09:25.737Z,6.47
2023-05-22T06:11:53.830Z,6.73
2023-05-22T06:14:21.773Z,6.93
2023-05-22T06:16:49.849Z,6.57
2023-05-22T06:19:19.305Z,6.77
2023-05-22T06:21:47.316Z,7.80
2023-05-22T06:24:15.515Z,7.10
2023-05-22T06:26:43.516Z,6.40
2023-05-22T06:29:11.470Z,6.80
2023-05-22T06:31:39.724Z,7.10
2023-05-22T06:34:07.814Z,6.47
2023-05-22T06:36:37.490Z,6.43
2023-05-22T06:39:05.590Z,7.17
2023-05-22T06:41:34.708Z,5.97
2023-05-22T06:44:03.120Z,6.50
2023-05-22T06:46:31.128Z,6.70
2023-05-22T06:48:59.116Z,6.63
2023-05-22T06:51:27.138Z,6.60
2023-05-22T06:53:56.515Z,6.87
2023-05-22T06:56:24.864Z,6.23
2023-05-22T06:58:52.861Z,6.53
2023-05-22T07:01:20.944Z,6.10
2023-05-22T07:03:48.909Z,6.00
2023-05-22T07:06:18.228Z,6.10
2023-05-22T07:08:46.338Z,6.50
2023-05-22T07:11:15.664Z,6.20
2023-05-22T07:13:43.662Z,6.73
2023-05-22T07:16:11.695Z,6.23
2023-05-22T07:18:40.401Z,5.80
2023-05-22T07:21:08.467Z,6.57
2023-05-22T07:23:36.440Z,6.40
2023-05-22T07:26:04.448Z,6.83
2023-05-22T07:28:33.773Z,5.97
2023-05-22T07:31:01.878Z,5.90
2023-05-22T07:33:29.884Z,6.10
2023-05-22T07:35:57.865Z,5.77
2023-05-22T07:38:27.778Z,6.30
2023-05-22T07:40:56.138Z,6.07
2023-05-22T07:43:24.139Z,5.80
2023-05-22T07:45:54.165Z,5.03
2023-05-22T07:48:22.255Z,5.90
2023-05-22T07:50:50.296Z,5.50
2023-05-22T07:53:18.289Z,5.47
2023-05-22T07:55:47.422Z,5.57
2023-05-22T07:58:15.624Z,5.53
2023-05-22T08:00:43.634Z,5.23
2023-05-22T08:03:13.447Z,5.50
2023-05-22T08:05:41.543Z,5.97
2023-05-22T08:08:12.120Z,5.33
2023-05-22T08:13:12.328Z,5.00
2023-05-22T08:15:40.310Z,6.03
2023-05-22T08:18:08.377Z,4.90
2023-05-22T08:20:38.670Z,5.00
2023-05-22T08:23:06.876Z,5.00
2023-05-22T08:25:34.861Z,5.43
2023-05-22T08:28:02.864Z,5.03
2023-05-22T08:30:31.164Z,5.20
2023-05-22T08:32:59.178Z,4.53
2023-05-22T08:35:27.160Z,4.73
2023-05-22T08:37:56.471Z,5.10
2023-05-22T08:40:29.293Z,4.90
2023-05-22T08:42:57.862Z,5.10
2023-05-22T08:45:26.184Z,4.90
2023-05-22T08:47:58.416Z,4.70
2023-05-22T08:50:27.977Z,4.57
2023-05-22T08:52:58.374Z,4.73
2023-05-22T08:55:26.642Z,5.00
2023-05-22T08:57:57.204Z,5.47
2023-05-22T09:00:25.205Z,4.53
2023-05-22T09:02:55.789Z,4.40
2023-05-22T09:05:26.759Z,4.27
2023-05-22T09:07:58.259Z,4.57
2023-05-22T09:10:29.810Z,5.03
2023-05-22T09:13:07.682Z,5.50
2023-05-22T09:15:36.621Z,5.20
2023-05-22T09:18:05.371Z,4.60
2023-05-22T09:20:36.566Z,4.50
2023-05-22T09:23:12.421Z,4.67
2023-05-22T09:25:43.188Z,5.30
2023-05-22T09:28:12.972Z,4.67
2023-05-22T09:30:42.450Z,4.40
2023-05-22T09:33:14.262Z,4.33
2023-05-22T09:35:43.941Z,4.70
2023-05-22T09:38:12.418Z,4.87
2023-05-22T09:40:42.581Z,5.10
2023-05-22T09:43:10.892Z,4.67
2023-05-22T09:45:40.084Z,4.83
2023-05-22T09:48:09.626Z,4.50
2023-05-22T09:50:38.135Z,4.17
2023-05-22T09:53:06.644Z,4.50
2023-05-22T09:55:35.753Z,4.50
2023-05-22T09:58:09.150Z,4.53
2023-05-22T10:00:37.835Z,4.60
2023-05-22T10:03:12.076Z,4.60
2023-05-22T10:05:45.729Z,4.33
2023-05-22T10:08:18.569Z,4.47
2023-05-22T10:10:51.366Z,4.70
2023-05-22T10:13:21.465Z,4.70
2023-05-22T10:15:53.299Z,4.77
2023-05-22T10:18:21.736Z,4.03
2023-05-22T10:20:50.725Z,4.83
2023-05-22T10:23:18.733Z,4.70
2023-05-22T10:25:47.316Z,4.60
2023-05-22T10:28:22.629Z,4.70
2023-05-22T10:30:57.452Z,5.40
2023-05-22T10:33:30.486Z,4.40
2023-05-22T10:36:02.542Z,4.80
2023-05-22T10:38:51.558Z,4.63
2023-05-22T10:41:19.946Z,4.53
2023-05-22T10:43:50.857Z,4.53
2023-05-22T10:46:20.364Z,5.00
2023-05-22T10:48:49.772Z,4.30
2023-05-22T10:51:21.882Z,5.10
2023-05-22T10:53:54.160Z,4.80
2023-05-22T10:56:25.173Z,4.40
2023-05-22T10:59:02.672Z,4.80
2023-05-22T11:01:35.255Z,4.80
2023-05-22T11:04:12.124Z,4.37
2023-05-22T11:06:42.216Z,5.10
2023-05-22T11:09:30.213Z,4.43
2023-05-22T11:12:19.533Z,4.60
2023-05-22T11:14:52.959Z,4.87
2023-05-22T11:17:28.053Z,4.90
2023-05-22T11:20:05.310Z,4.50
2023-05-22T11:22:35.253Z,4.83
2023-05-22T11:25:06.634Z,4.80
2023-05-22T11:27:39.623Z,4.60
2023-05-22T11:30:09.408Z,4.60
2023-05-22T11:32:39.747Z,5.60
2023-05-22T11:35:09.172Z,5.10
2023-05-22T11:37:39.967Z,4.80
2023-05-22T11:40:09.261Z,4.80
2023-05-22T11:42:37.700Z,4.90
2023-05-22T11:45:06.895Z,5.30
2023-05-22T11:47:35.258Z,4.67
2023-05-22T11:50:06.712Z,4.83
2023-05-22T11:52:36.452Z,4.40
2023-05-22T11:55:06.461Z,5.10
2023-05-22T11:57:34.795Z,4.50
2023-05-22T12:00:06.403Z,4.37
2023-05-22T12:02:35.916Z,4.70
2023-05-22T12:05:06.102Z,5.00
2023-05-22T12:07:34.253Z,4.53
2023-05-22T12:10:03.672Z,4.37
2023-05-22T12:12:32.083Z,4.50
2023-05-22T12:15:00.026Z,4.87
2023-05-22T12:17:30.006Z,4.70
2023-05-22T12:19:59.138Z,4.40
2023-05-22T12:22:29.778Z,4.53
2023-05-22T12:24:57.764Z,4.40
2023-05-22T12:27:25.706Z,4.80
2023-05-22T12:29:58.054Z,4.73
2023-05-22T12:32:27.010Z,4.97
2023-05-22T12:34:59.888Z,4.73
2023-05-22T12:37:29.250Z,4.53
2023-05-22T12:39:58.365Z,4.90
2023-05-22T12:42:29.860Z,4.50
2023-05-22T12:45:00.524Z,4.53
2023-05-22T12:47:28.580Z,4.60
2023-05-22T12:49:56.536Z,4.70
2023-05-22T12:52:24.487Z,4.50
2023-05-22T12:54:53.796Z,4.43
2023-05-22T12:57:21.897Z,4.10
2023-05-22T12:59:49.873Z,5.20
2023-05-22T13:02:17.934Z,4.90
2023-05-22T13:04:45.899Z,4.80
2023-05-22T13:07:13.844Z,4.67
2023-05-22T13:09:41.813Z,4.40
2023-05-22T13:12:11.435Z,4.40
2023-05-22T13:14:40.414Z,4.63
2023-05-22T13:17:09.197Z,4.67
2023-05-22T13:19:37.314Z,4.37
2023-05-22T13:22:07.425Z,4.50
2023-05-22T13:24:35.604Z,4.20
2023-05-22T13:27:03.608Z,4.70
2023-05-22T13:29:33.223Z,4.67
2023-05-22T13:32:01.813Z,4.47
2023-05-22T13:34:30.192Z,4.33
2023-05-22T13:36:58.384Z,4.60
2023-05-22T13:39:26.410Z,4.47
2023-05-22T13:41:54.549Z,5.00
2023-05-22T13:44:22.697Z,5.67
2023-05-22T13:46:52.203Z,5.10
2023-05-22T13:49:20.352Z,4.70
2023-05-22T13:51:48.403Z,4.50
2023-05-22T13:54:16.556Z,4.30
2023-05-22T13:56:44.490Z,4.60
2023-05-22T13:59:12.423Z,4.33
2023-05-22T14:01:40.507Z,4.50
2023-05-22T14:04:09.811Z,4.30
2023-05-22T14:06:38.020Z,4.50
2023-05-22T14:09:07.872Z,4.60
2023-05-22T14:11:36.170Z,4.70
2023-05-22T14:14:04.172Z,4.60
2023-05-22T14:16:32.319Z,4.53
2023-05-22T14:19:00.642Z,4.40
2023-05-22T14:21:30.094Z,4.10
2023-05-22T14:23:58.406Z,4.50
2023-05-22T14:26:26.381Z,4.40
2023-05-22T14:28:54.904Z,4.43
2023-05-22T14:31:22.955Z,4.60
2023-05-22T14:33:51.033Z,4.30
2023-05-22T14:36:19.056Z,4.50
2023-05-22T14:38:48.392Z,4.80
2023-05-22T14:41:17.031Z,4.70
2023-05-22T14:43:44.975Z,4.63
2023-05-22T14:46:13.420Z,4.47
2023-05-22T14:48:44.491Z,4.77
2023-05-22T14:51:12.440Z,4.70
2023-05-22T14:53:40.536Z,4.63
2023-05-22T14:56:09.937Z,4.33
2023-05-22T14:58:37.887Z,4.50
2023-05-22T15:01:06.214Z,4.80
2023-05-22T15:03:34.174Z,4.40
2023-05-22T15:06:02.118Z,4.53
2023-05-22T15:08:30.159Z,4.37
2023-05-22T15:10:58.243Z,4.93
2023-05-22T15:13:27.586Z,5.00
2023-05-22T15:15:55.537Z,4.40
2023-05-22T15:18:23.493Z,4.93
2023-05-22T15:20:51.674Z,4.50
2023-05-22T15:23:19.673Z,4.90
2023-05-22T15:25:48.346Z,4.43
2023-05-22T15:28:16.382Z,4.90
2023-05-22T15:30:45.688Z,5.03
2023-05-22T15:33:13.814Z,4.37
2023-05-22T15:35:42.543Z,5.17
2023-05-22T15:38:12.498Z,5.80
2023-05-22T15:40:41.317Z,6.40
2023-05-22T15:43:09.458Z,7.10
2023-05-22T15:45:38.389Z,6.47
2023-05-22T15:48:08.422Z,6.40
2023-05-22T15:50:36.434Z,7.60
2023-05-22T15:53:04.466Z,7.97
2023-05-22T15:55:33.401Z,7.60
2023-05-22T15:58:02.648Z,7.90
2023-05-22T16:00:30.764Z,7.80
2023-05-22T16:02:58.829Z,7.60
2023-05-22T16:05:28.220Z,7.60
2023-05-22T16:07:56.178Z,8.50
2023-05-22T16:10:24.184Z,8.13
2023-05-22T16:12:52.132Z,8.20
2023-05-22T16:15:20.128Z,8.03
2023-05-22T16:17:48.209Z,7.70
2023-05-22T16:20:16.471Z,7.70
2023-05-22T16:22:48.699Z,8.63
2023-05-22T16:25:17.423Z,9.10
2023-05-22T16:27:45.561Z,9.00
2023-05-22T16:30:16.400Z,9.00
2023-05-22T16:32:45.837Z,8.97
2023-05-22T16:35:14.197Z,8.60
2023-05-22T16:37:42.218Z,8.53
2023-05-22T16:40:12.273Z,9.70
2023-05-22T16:42:40.276Z,8.43
2023-05-22T16:45:09.225Z,9.40
2023-05-22T16:47:40.121Z,10.27
2023-05-22T16:50:09.500Z,9.10
2023-05-22T16:52:37.743Z,8.50
2023-05-22T16:55:06.480Z,8.53
2023-05-22T16:57:35.807Z,9.50
2023-05-22T17:00:04.290Z,8.40
2023-05-22T17:02:32.691Z,8.90
2023-05-22T17:05:01.099Z,9.40
2023-05-22T17:07:31.623Z,8.70
2023-05-22T17:09:59.599Z,9.30
2023-05-22T17:12:27.628Z,9.90
2023-05-22T17:14:56.983Z,10.67
2023-05-22T17:17:25.015Z,9.50
2023-05-22T17:19:53.347Z,10.93
2023-05-22T17:22:21.352Z,10.63
2023-05-22T17:24:49.428Z,10.90
2023-05-22T17:27:31.535Z,10.63
2023-05-22T17:30:07.733Z,10.63
2023-05-22T17:32:36.322Z,10.13
2023-05-22T17:35:06.287Z,11.10
2023-05-22T17:37:37.327Z,10.97
2023-05-22T17:40:06.412Z,11.50
2023-05-22T17:42:34.374Z,10.90
2023-05-22T17:45:02.360Z,10.20
2023-05-22T17:47:31.780Z,10.00
2023-05-22T17:49:59.859Z,10.70
2023-05-22T17:52:27.811Z,10.20
2023-05-22T17:54:56.287Z,10.40
2023-05-22T17:57:24.239Z,9.43
2023-05-22T17:59:52.240Z,9.43
2023-05-22T18:02:20.247Z,10.13
2023-05-22T18:04:49.675Z,9.10
2023-05-22T18:07:19.276Z,8.90
2023-05-22T18:09:47.376Z,9.63
2023-05-22T18:12:30.751Z,10.13
2023-05-22T18:14:59.948Z,10.20
2023-05-22T18:17:28.044Z,10.23
2023-05-22T18:19:57.531Z,10.00
2023-05-22T18:22:25.800Z,10.00
2023-05-22T18:24:54.995Z,10.07
2023-05-22T18:27:25.215Z,10.30
2023-05-22T18:29:55.264Z,11.10
2023-05-22T18:32:23.237Z,11.03
2023-05-22T18:34:51.999Z,12.10
2023-05-22T18:37:22.885Z,11.70
2023-05-22T18:39:50.968Z,10.30
2023-05-22T18:42:18.983Z,10.77
2023-05-22T18:44:49.014Z,11.40
2023-05-22T18:47:17.765Z,9.80
2023-05-22T18:49:45.836Z,10.00
2023-05-22T18:52:13.888Z,10.30
2023-05-22T18:54:43.285Z,10.30
2023-05-22T18:57:11.242Z,10.23
2023-05-22T18:59:39.259Z,10.93
2023-05-22T19:02:07.730Z,11.50
2023-05-22T19:04:35.733Z,10.77
2023-05-22T19:07:03.836Z,12.40
2023-05-22T19:09:31.855Z,10.83
2023-05-22T19:12:01.386Z,11.97
2023-05-22T19:14:29.391Z,12.00
2023-05-22T19:16:59.308Z,11.70
2023-05-22T19:19:31.505Z,11.60
2023-05-22T19:21:59.944Z,11.70
2023-05-22T19:24:28.392Z,12.17
2023-05-22T19:26:56.408Z,12.03
2023-05-22T19:29:25.895Z,11.73
2023-05-22T19:31:53.893Z,11.70
2023-05-22T19:34:21.918Z,12.53
2023-05-22T19:36:51.621Z,13.10
2023-05-22T19:39:19.657Z,13.03
2023-05-22T19:41:47.643Z,13.07
2023-05-22T19:44:18.556Z,13.00
2023-05-22T19:46:49.120Z,13.37
2023-05-22T19:49:17.187Z,12.53
2023-05-22T19:51:45.878Z,12.03
2023-05-22T19:54:13.895Z,12.97
2023-05-22T19:56:41.854Z,12.90
2023-05-22T19:59:09.907Z,11.20
2023-05-22T20:01:37.966Z,11.53
2023-05-22T20:04:07.379Z,12.50
2023-05-22T20:06:35.340Z,13.37
2023-05-22T20:09:05.770Z,12.57
2023-05-22T20:11:33.798Z,12.37
2023-05-22T20:14:02.477Z,12.43
2023-05-22T20:16:30.611Z,12.53
2023-05-22T20:18:58.714Z,12.20
2023-05-22T20:21:28.046Z,12.67
2023-05-22T20:23:56.215Z,12.50
2023-05-22T20:26:24.184Z,12.90
2023-05-22T20:28:52.121Z,12.23
2023-05-22T20:31:20.173Z,12.73
2023-05-22T20:33:48.173Z,12.00
2023-05-22T20:36:17.905Z,12.67
2023-05-22T20:38:47.253Z,12.60
2023-05-22T20:41:15.402Z,12.20
2023-05-22T20:43:43.866Z,11.70
2023-05-22T20:46:11.805Z,12.47
2023-05-22T20:48:40.484Z,12.47
2023-05-22T20:51:10.174Z,12.70
2023-05-22T20:53:38.158Z,12.37
2023-05-22T20:56:07.725Z,12.03
2023-05-22T20:58:36.924Z,11.60
2023-05-22T21:01:06.267Z,13.30
2023-05-22T21:03:34.317Z,13.07
2023-05-22T21:06:02.337Z,12.70
2023-05-22T21:08:30.575Z,13.50
2023-05-22T21:10:58.574Z,13.37
2023-05-22T21:13:27.893Z,13.63
2023-05-22T21:15:55.798Z,13.40
2023-05-22T21:18:24.200Z,15.00
2023-05-22T21:20:52.170Z,13.90
2023-05-22T21:23:21.159Z,15.60
2023-05-22T21:25:50.432Z,14.87
2023-05-22T21:28:18.511Z,15.03
2023-05-22T21:30:47.893Z,16.00
2023-05-22T21:33:15.937Z,15.70
2023-05-22T21:35:43.942Z,16.27
2023-05-22T21:38:11.921Z,17.20
2023-05-22T21:40:40.668Z,16.37
2023-05-22T21:43:08.833Z,18.50
2023-05-22T21:45:37.301Z,18.07
2023-05-22T21:48:06.787Z,17.10
2023-05-22T21:50:34.820Z,17.40
2023-05-22T21:53:02.780Z,18.33
2023-05-22T21:55:31.043Z,19.80
2023-05-22T21:57:59.053Z,21.00
2023-05-22T22:00:28.524Z,19.13
2023-05-22T22:02:57.964Z,21.07
2023-05-22T22:05:27.609Z,21.30
2023-05-22T22:07:55.605Z,19.20
2023-05-22T22:10:23.884Z,19.00
2023-05-22T22:12:51.984Z,20.07
2023-05-22T22:15:19.950Z,18.30
2023-05-22T22:17:47.902Z,17.27
2023-05-22T22:20:16.041Z,17.73
2023-05-22T22:22:46.763Z,17.13
2023-05-22T22:25:14.755Z,17.13
2023-05-22T22:27:42.690Z,17.03
2023-05-22T22:30:11.473Z,16.20
2023-05-22T22:32:39.458Z,16.50
2023-05-22T22:35:08.618Z,16.90
2023-05-22T22:37:37.556Z,16.10
2023-05-22T22:40:08.103Z,17.10
2023-05-22T22:42:37.948Z,16.17
2023-05-22T22:45:06.994Z,16.23
2023-05-22T22:47:34.948Z,15.93
2023-05-22T22:50:02.969Z,15.47
2023-05-22T22:52:30.937Z,15.97
2023-05-22T22:54:59.096Z,15.23
2023-05-22T22:57:28.586Z,15.00
2023-05-22T22:59:56.521Z,15.77
2023-05-22T23:02:24.527Z,15.27
2023-05-22T23:04:52.662Z,15.20
2023-05-22T23:07:20.626Z,13.83
2023-05-22T23:09:48.583Z,13.70
2023-05-22T23:12:17.009Z,13.70
2023-05-22T23:14:46.308Z,12.83
2023-05-22T23:17:14.321Z,13.17
2023-05-22T23:19:42.346Z,13.53
2023-05-22T23:22:10.333Z,14.40
2023-05-22T23:24:38.340Z,13.90
2023-05-22T23:27:06.571Z,13.80
2023-05-22T23:29:34.534Z,13.60
2023-05-22T23:32:03.862Z,14.43
2023-05-22T23:34:31.850Z,14.47
2023-05-22T23:36:59.793Z,14.67
2023-05-22T23:39:27.745Z,14.70
2023-05-22T23:41:55.710Z,14.53
2023-05-22T23:44:23.669Z,14.33
2023-05-22T23:46:51.668Z,13.60
2023-05-22T23:49:21.475Z,14.97
2023-05-22T23:51:49.459Z,13.97
2023-05-22T23:54:17.965Z,14.20
2023-05-22T23:56:46.038Z,14.20
2023-05-22T23:59:14.025Z,15.70
